sensor_id;sensor_type;location;lat;lon;timestamp;P1;durP1;ratioP1;P2;durP2;ratioP2
42066;SDS011;27734;47.028;28.820;2022-10-03T00:04:17;2.30;;;1.70;;
42066;SDS011;27734;47.028;28.820;2022-10-03T00:07:01;3.97;;;2.00;;
42066;SDS011;27734;47.028;28.820;2022-10-03T00:09:47;2.77;;;2.13;;
42066;SDS011;27734;47.028;28.820;2022-10-03T00:12:39;2.00;;;1.70;;
42066;SDS011;27734;47.028;28.820;2022-10-03T00:15:23;3.57;;;1.60;;
42066;SDS011;27734;47.028;28.820;2022-10-03T00:18:00;2.10;;;1.77;;
42066;SDS011;27734;47.028;28.820;2022-10-03T00:20:46;2.77;;;2.10;;
42066;SDS011;27734;47.028;28.820;2022-10-03T00:23:35;3.87;;;2.03;;
42066;SDS011;27734;47.028;28.820;2022-10-03T00:26:14;6.70;;;2.03;;
42066;SDS011;27734;47.028;28.820;2022-10-03T00:29:02;4.63;;;1.67;;
42066;SDS011;27734;47.028;28.820;2022-10-03T00:31:54;4.30;;;2.10;;
42066;SDS011;27734;47.028;28.820;2022-10-03T00:34:35;3.00;;;1.80;;
42066;SDS011;27734;47.028;28.820;2022-10-03T00:37:20;4.93;;;2.10;;
42066;SDS011;27734;47.028;28.820;2022-10-03T00:40:15;5.17;;;1.87;;
42066;SDS011;27734;47.028;28.820;2022-10-03T00:52:51;6.00;;;2.03;;
42066;SDS011;27734;47.028;28.820;2022-10-03T00:55:35;6.23;;;2.10;;
42066;SDS011;27734;47.028;28.820;2022-10-03T00:58:19;3.70;;;1.92;;
42066;SDS011;27734;47.028;28.820;2022-10-03T01:01:05;3.03;;;2.03;;
42066;SDS011;27734;47.028;28.820;2022-10-03T01:03:54;3.20;;;2.00;;
42066;SDS011;27734;47.028;28.820;2022-10-03T01:06:38;2.67;;;1.87;;
42066;SDS011;27734;47.028;28.820;2022-10-03T01:09:18;3.90;;;1.90;;
42066;SDS011;27734;47.028;28.820;2022-10-03T01:12:05;2.80;;;1.83;;
42066;SDS011;27734;47.028;28.820;2022-10-03T01:14:53;4.50;;;1.83;;
42066;SDS011;27734;47.028;28.820;2022-10-03T01:17:47;5.63;;;1.93;;
42066;SDS011;27734;47.028;28.820;2022-10-03T01:20:37;3.40;;;1.80;;
42066;SDS011;27734;47.028;28.820;2022-10-03T01:23:32;2.93;;;1.97;;
42066;SDS011;27734;47.028;28.820;2022-10-03T01:26:29;4.60;;;2.20;;
42066;SDS011;27734;47.028;28.820;2022-10-03T01:32:09;3.17;;;1.70;;
42066;SDS011;27734;47.028;28.820;2022-10-03T01:34:46;3.40;;;2.10;;
42066;SDS011;27734;47.028;28.820;2022-10-03T01:37:24;2.07;;;1.60;;
42066;SDS011;27734;47.028;28.820;2022-10-03T01:40:02;3.03;;;1.60;;
42066;SDS011;27734;47.028;28.820;2022-10-03T01:42:51;2.77;;;1.70;;
42066;SDS011;27734;47.028;28.820;2022-10-03T01:45:30;3.23;;;1.80;;
42066;SDS011;27734;47.028;28.820;2022-10-03T01:48:17;2.77;;;2.03;;
42066;SDS011;27734;47.028;28.820;2022-10-03T01:50:58;2.80;;;1.90;;
42066;SDS011;27734;47.028;28.820;2022-10-03T01:53:34;2.77;;;1.80;;
42066;SDS011;27734;47.028;28.820;2022-10-03T01:56:17;2.53;;;1.50;;
42066;SDS011;27734;47.028;28.820;2022-10-03T01:58:59;3.87;;;1.70;;
42066;SDS011;27734;47.028;28.820;2022-10-03T02:01:35;2.00;;;1.70;;
42066;SDS011;27734;47.028;28.820;2022-10-03T02:04:16;3.63;;;2.00;;
42066;SDS011;27734;47.028;28.820;2022-10-03T02:06:59;4.53;;;1.90;;
42066;SDS011;27734;47.028;28.820;2022-10-03T02:09:42;2.60;;;1.90;;
42066;SDS011;27734;47.028;28.820;2022-10-03T02:12:28;3.63;;;2.07;;
42066;SDS011;27734;47.028;28.820;2022-10-03T02:15:07;4.13;;;1.63;;
42066;SDS011;27734;47.028;28.820;2022-10-03T02:17:52;2.47;;;1.70;;
42066;SDS011;27734;47.028;28.820;2022-10-03T02:20:29;2.90;;;1.60;;
42066;SDS011;27734;47.028;28.820;2022-10-03T02:23:19;2.77;;;1.90;;
42066;SDS011;27734;47.028;28.820;2022-10-03T02:26:09;5.13;;;1.83;;
42066;SDS011;27734;47.028;28.820;2022-10-03T02:29:18;1.63;;;1.53;;
42066;SDS011;27734;47.028;28.820;2022-10-03T02:35:14;3.40;;;1.90;;
42066;SDS011;27734;47.028;28.820;2022-10-03T02:38:04;6.33;;;1.80;;
42066;SDS011;27734;47.028;28.820;2022-10-03T02:59:28;2.40;;;1.80;;
42066;SDS011;27734;47.028;28.820;2022-10-03T03:05:26;4.00;;;1.67;;
42066;SDS011;27734;47.028;28.820;2022-10-03T03:08:17;4.03;;;1.90;;
42066;SDS011;27734;47.028;28.820;2022-10-03T03:11:14;1.50;;;1.40;;
42066;SDS011;27734;47.028;28.820;2022-10-03T03:14:13;5.87;;;1.60;;
42066;SDS011;27734;47.028;28.820;2022-10-03T03:17:13;1.57;;;1.47;;
42066;SDS011;27734;47.028;28.820;2022-10-03T03:20:04;2.97;;;1.60;;
42066;SDS011;27734;47.028;28.820;2022-10-03T03:22:49;1.87;;;1.60;;
42066;SDS011;27734;47.028;28.820;2022-10-03T03:25:51;3.53;;;1.77;;
42066;SDS011;27734;47.028;28.820;2022-10-03T03:28:45;5.33;;;1.93;;
42066;SDS011;27734;47.028;28.820;2022-10-03T03:31:30;2.22;;;1.52;;
42066;SDS011;27734;47.028;28.820;2022-10-03T03:34:11;6.20;;;2.10;;
42066;SDS011;27734;47.028;28.820;2022-10-03T03:36:52;3.83;;;1.97;;
42066;SDS011;27734;47.028;28.820;2022-10-03T03:39:37;4.60;;;2.15;;
42066;SDS011;27734;47.028;28.820;2022-10-03T03:42:31;4.03;;;1.90;;
42066;SDS011;27734;47.028;28.820;2022-10-03T03:45:27;2.97;;;1.70;;
42066;SDS011;27734;47.028;28.820;2022-10-03T03:48:24;8.53;;;1.97;;
42066;SDS011;27734;47.028;28.820;2022-10-03T03:51:18;4.43;;;2.00;;
42066;SDS011;27734;47.028;28.820;2022-10-03T03:57:21;4.57;;;1.70;;
42066;SDS011;27734;47.028;28.820;2022-10-03T04:00:19;4.20;;;1.97;;
42066;SDS011;27734;47.028;28.820;2022-10-03T04:03:01;3.05;;;1.70;;
42066;SDS011;27734;47.028;28.820;2022-10-03T04:05:53;4.83;;;1.80;;
42066;SDS011;27734;47.028;28.820;2022-10-03T04:08:37;4.60;;;1.87;;
42066;SDS011;27734;47.028;28.820;2022-10-03T04:11:37;2.33;;;1.60;;
42066;SDS011;27734;47.028;28.820;2022-10-03T04:17:31;2.97;;;1.60;;
42066;SDS011;27734;47.028;28.820;2022-10-03T04:23:32;4.53;;;1.57;;
42066;SDS011;27734;47.028;28.820;2022-10-03T04:26:23;4.10;;;1.90;;
42066;SDS011;27734;47.028;28.820;2022-10-03T04:29:19;3.63;;;1.83;;
42066;SDS011;27734;47.028;28.820;2022-10-03T04:32:03;6.63;;;1.80;;
42066;SDS011;27734;47.028;28.820;2022-10-03T04:34:48;10.47;;;1.90;;
42066;SDS011;27734;47.028;28.820;2022-10-03T04:37:36;8.27;;;2.37;;
42066;SDS011;27734;47.028;28.820;2022-10-03T04:40:20;5.63;;;1.77;;
42066;SDS011;27734;47.028;28.820;2022-10-03T04:43:03;5.07;;;1.80;;
42066;SDS011;27734;47.028;28.820;2022-10-03T04:45:47;7.67;;;2.03;;
42066;SDS011;27734;47.028;28.820;2022-10-03T04:51:14;10.17;;;3.00;;
42066;SDS011;27734;47.028;28.820;2022-10-03T04:53:54;18.73;;;3.07;;
42066;SDS011;27734;47.028;28.820;2022-10-03T04:56:37;13.57;;;2.13;;
42066;SDS011;27734;47.028;28.820;2022-10-03T04:59:21;2.77;;;1.60;;
42066;SDS011;27734;47.028;28.820;2022-10-03T05:02:05;7.57;;;2.23;;
42066;SDS011;27734;47.028;28.820;2022-10-03T05:04:57;8.43;;;2.00;;
42066;SDS011;27734;47.028;28.820;2022-10-03T05:07:49;3.30;;;1.50;;
42066;SDS011;27734;47.028;28.820;2022-10-03T05:10:39;3.50;;;1.70;;
42066;SDS011;27734;47.028;28.820;2022-10-03T05:13:21;10.70;;;1.97;;
42066;SDS011;27734;47.028;28.820;2022-10-03T05:16:07;4.87;;;1.70;;
42066;SDS011;27734;47.028;28.820;2022-10-03T05:18:48;11.17;;;1.63;;
42066;SDS011;27734;47.028;28.820;2022-10-03T05:21:27;9.50;;;2.20;;
42066;SDS011;27734;47.028;28.820;2022-10-03T05:24:07;2.53;;;1.67;;
42066;SDS011;27734;47.028;28.820;2022-10-03T05:26:50;3.10;;;1.60;;
42066;SDS011;27734;47.028;28.820;2022-10-03T05:29:34;7.90;;;1.97;;
42066;SDS011;27734;47.028;28.820;2022-10-03T05:32:12;2.07;;;1.50;;
42066;SDS011;27734;47.028;28.820;2022-10-03T05:35:02;5.35;;;1.72;;
42066;SDS011;27734;47.028;28.820;2022-10-03T05:37:57;3.97;;;2.03;;
42066;SDS011;27734;47.028;28.820;2022-10-03T05:40:42;3.10;;;1.80;;
42066;SDS011;27734;47.028;28.820;2022-10-03T05:43:34;1.93;;;1.70;;
42066;SDS011;27734;47.028;28.820;2022-10-03T05:46:21;2.97;;;1.60;;
42066;SDS011;27734;47.028;28.820;2022-10-03T05:49:13;6.53;;;2.30;;
42066;SDS011;27734;47.028;28.820;2022-10-03T05:52:06;3.43;;;1.90;;
42066;SDS011;27734;47.028;28.820;2022-10-03T05:55:06;3.43;;;2.10;;
42066;SDS011;27734;47.028;28.820;2022-10-03T06:01:28;7.80;;;2.60;;
42066;SDS011;27734;47.028;28.820;2022-10-03T06:04:48;7.27;;;2.23;;
42066;SDS011;27734;47.028;28.820;2022-10-03T06:07:40;6.23;;;1.93;;
42066;SDS011;27734;47.028;28.820;2022-10-03T06:10:45;4.57;;;2.00;;
42066;SDS011;27734;47.028;28.820;2022-10-03T06:13:31;5.40;;;2.17;;
42066;SDS011;27734;47.028;28.820;2022-10-03T06:16:19;5.13;;;2.30;;
42066;SDS011;27734;47.028;28.820;2022-10-03T06:19:09;6.40;;;3.33;;
42066;SDS011;27734;47.028;28.820;2022-10-03T06:22:16;14.83;;;7.80;;
42066;SDS011;27734;47.028;28.820;2022-10-03T06:25:24;3.87;;;2.00;;
42066;SDS011;27734;47.028;28.820;2022-10-03T06:31:39;4.70;;;1.75;;
42066;SDS011;27734;47.028;28.820;2022-10-03T06:34:37;5.10;;;1.67;;
42066;SDS011;27734;47.028;28.820;2022-10-03T06:37:38;2.87;;;1.50;;
42066;SDS011;27734;47.028;28.820;2022-10-03T06:40:49;3.43;;;1.53;;
42066;SDS011;27734;47.028;28.820;2022-10-03T06:59:44;9.80;;;2.37;;
42066;SDS011;27734;47.028;28.820;2022-10-03T07:02:45;7.37;;;2.50;;
42066;SDS011;27734;47.028;28.820;2022-10-03T07:15:21;8.00;;;2.10;;
42066;SDS011;27734;47.028;28.820;2022-10-03T07:18:30;3.17;;;2.00;;
42066;SDS011;27734;47.028;28.820;2022-10-03T07:21:56;5.03;;;2.13;;
42066;SDS011;27734;47.028;28.820;2022-10-03T07:25:06;4.97;;;1.43;;
42066;SDS011;27734;47.028;28.820;2022-10-03T07:31:12;2.23;;;1.73;;
42066;SDS011;27734;47.028;28.820;2022-10-03T07:36:56;2.33;;;1.50;;
42066;SDS011;27734;47.028;28.820;2022-10-03T07:40:12;4.40;;;1.60;;
42066;SDS011;27734;47.028;28.820;2022-10-03T07:46:07;2.70;;;1.62;;
42066;SDS011;27734;47.028;28.820;2022-10-03T07:49:13;4.87;;;2.00;;
42066;SDS011;27734;47.028;28.820;2022-10-03T07:52:05;3.23;;;2.00;;
42066;SDS011;27734;47.028;28.820;2022-10-03T07:55:13;4.67;;;1.97;;
42066;SDS011;27734;47.028;28.820;2022-10-03T07:58:22;5.87;;;2.40;;
42066;SDS011;27734;47.028;28.820;2022-10-03T08:01:28;6.40;;;2.20;;
42066;SDS011;27734;47.028;28.820;2022-10-03T08:04:35;7.47;;;2.63;;
42066;SDS011;27734;47.028;28.820;2022-10-03T08:07:38;6.27;;;2.60;;
42066;SDS011;27734;47.028;28.820;2022-10-03T08:10:38;7.67;;;2.73;;
42066;SDS011;27734;47.028;28.820;2022-10-03T08:13:32;4.50;;;2.50;;
42066;SDS011;27734;47.028;28.820;2022-10-03T08:16:20;4.50;;;2.23;;
42066;SDS011;27734;47.028;28.820;2022-10-03T08:19:10;8.27;;;2.13;;
42066;SDS011;27734;47.028;28.820;2022-10-03T08:22:00;7.87;;;2.37;;
42066;SDS011;27734;47.028;28.820;2022-10-03T08:24:53;4.27;;;2.00;;
42066;SDS011;27734;47.028;28.820;2022-10-03T08:27:43;6.20;;;1.87;;
42066;SDS011;27734;47.028;28.820;2022-10-03T08:30:42;5.90;;;2.05;;
42066;SDS011;27734;47.028;28.820;2022-10-03T08:33:48;8.00;;;3.07;;
42066;SDS011;27734;47.028;28.820;2022-10-03T08:40:10;9.40;;;4.07;;
42066;SDS011;27734;47.028;28.820;2022-10-03T08:43:34;8.80;;;3.50;;
42066;SDS011;27734;47.028;28.820;2022-10-03T08:46:35;9.93;;;4.40;;
42066;SDS011;27734;47.028;28.820;2022-10-03T08:52:39;4.07;;;1.57;;
42066;SDS011;27734;47.028;28.820;2022-10-03T08:55:34;2.30;;;1.57;;
42066;SDS011;27734;47.028;28.820;2022-10-03T09:01:46;3.40;;;1.57;;
42066;SDS011;27734;47.028;28.820;2022-10-03T09:11:02;2.57;;;1.73;;
42066;SDS011;27734;47.028;28.820;2022-10-03T09:20:21;2.50;;;1.73;;
42066;SDS011;27734;47.028;28.820;2022-10-03T09:26:19;6.43;;;1.83;;
42066;SDS011;27734;47.028;28.820;2022-10-03T09:29:30;5.07;;;1.67;;
42066;SDS011;27734;47.028;28.820;2022-10-03T09:51:19;1.47;;;1.10;;
42066;SDS011;27734;47.028;28.820;2022-10-03T10:00:25;2.40;;;1.60;;
42066;SDS011;27734;47.028;28.820;2022-10-03T10:03:04;2.60;;;1.30;;
42066;SDS011;27734;47.028;28.820;2022-10-03T10:21:57;2.97;;;1.50;;
42066;SDS011;27734;47.028;28.820;2022-10-03T10:28:28;2.30;;;1.23;;
42066;SDS011;27734;47.028;28.820;2022-10-03T10:31:18;1.90;;;1.20;;
42066;SDS011;27734;47.028;28.820;2022-10-03T10:37:31;1.10;;;1.00;;
42066;SDS011;27734;47.028;28.820;2022-10-03T10:47:09;5.13;;;1.80;;
42066;SDS011;27734;47.028;28.820;2022-10-03T10:50:02;2.07;;;1.40;;
42066;SDS011;27734;47.028;28.820;2022-10-03T11:02:26;2.53;;;1.30;;
42066;SDS011;27734;47.028;28.820;2022-10-03T11:05:37;2.20;;;1.00;;
42066;SDS011;27734;47.028;28.820;2022-10-03T11:24:39;3.03;;;0.93;;
42066;SDS011;27734;47.028;28.820;2022-10-03T11:30:57;6.53;;;1.70;;
42066;SDS011;27734;47.028;28.820;2022-10-03T11:39:51;1.20;;;0.83;;
42066;SDS011;27734;47.028;28.820;2022-10-03T11:42:36;1.57;;;1.10;;
42066;SDS011;27734;47.028;28.820;2022-10-03T11:45:27;3.73;;;1.00;;
42066;SDS011;27734;47.028;28.820;2022-10-03T11:48:21;2.50;;;1.20;;
42066;SDS011;27734;47.028;28.820;2022-10-03T11:51:04;4.53;;;1.23;;
42066;SDS011;27734;47.028;28.820;2022-10-03T11:53:47;6.63;;;1.50;;
42066;SDS011;27734;47.028;28.820;2022-10-03T12:02:15;2.33;;;1.30;;
42066;SDS011;27734;47.028;28.820;2022-10-03T12:05:10;2.62;;;1.45;;
42066;SDS011;27734;47.028;28.820;2022-10-03T12:08:02;4.63;;;1.40;;
42066;SDS011;27734;47.028;28.820;2022-10-03T12:11:05;2.03;;;1.20;;
42066;SDS011;27734;47.028;28.820;2022-10-03T12:13:57;2.00;;;1.40;;
42066;SDS011;27734;47.028;28.820;2022-10-03T12:17:00;6.10;;;1.57;;
42066;SDS011;27734;47.028;28.820;2022-10-03T12:19:52;1.47;;;1.00;;
42066;SDS011;27734;47.028;28.820;2022-10-03T12:22:38;2.13;;;1.10;;
42066;SDS011;27734;47.028;28.820;2022-10-03T12:25:29;1.70;;;0.97;;
42066;SDS011;27734;47.028;28.820;2022-10-03T12:28:16;1.67;;;1.50;;
42066;SDS011;27734;47.028;28.820;2022-10-03T12:30:55;2.43;;;1.10;;
42066;SDS011;27734;47.028;28.820;2022-10-03T12:33:47;1.90;;;1.00;;
42066;SDS011;27734;47.028;28.820;2022-10-03T12:36:43;5.10;;;1.37;;
42066;SDS011;27734;47.028;28.820;2022-10-03T12:39:28;2.20;;;1.00;;
42066;SDS011;27734;47.028;28.820;2022-10-03T12:45:22;2.27;;;1.23;;
42066;SDS011;27734;47.028;28.820;2022-10-03T12:48:14;3.30;;;1.17;;
42066;SDS011;27734;47.028;28.820;2022-10-03T12:51:16;9.33;;;4.27;;
42066;SDS011;27734;47.028;28.820;2022-10-03T12:54:16;11.20;;;4.57;;
42066;SDS011;27734;47.028;28.820;2022-10-03T13:03:35;6.13;;;2.80;;
42066;SDS011;27734;47.028;28.820;2022-10-03T13:09:34;2.53;;;1.23;;
42066;SDS011;27734;47.028;28.820;2022-10-03T13:12:46;3.97;;;1.40;;
42066;SDS011;27734;47.028;28.820;2022-10-03T13:19:00;1.53;;;1.40;;
42066;SDS011;27734;47.028;28.820;2022-10-03T13:25:01;3.40;;;1.40;;
42066;SDS011;27734;47.028;28.820;2022-10-03T13:27:51;3.90;;;1.30;;
42066;SDS011;27734;47.028;28.820;2022-10-03T13:30:34;3.22;;;1.42;;
42066;SDS011;27734;47.028;28.820;2022-10-03T13:33:15;2.40;;;1.30;;
42066;SDS011;27734;47.028;28.820;2022-10-03T13:35:59;3.70;;;1.20;;
42066;SDS011;27734;47.028;28.820;2022-10-03T13:38:47;4.93;;;1.50;;
42066;SDS011;27734;47.028;28.820;2022-10-03T13:41:58;3.00;;;1.53;;
42066;SDS011;27734;47.028;28.820;2022-10-03T13:44:39;3.58;;;1.40;;
42066;SDS011;27734;47.028;28.820;2022-10-03T13:47:27;2.57;;;1.53;;
42066;SDS011;27734;47.028;28.820;2022-10-03T13:50:04;4.95;;;1.40;;
42066;SDS011;27734;47.028;28.820;2022-10-03T13:52:47;3.40;;;1.40;;
42066;SDS011;27734;47.028;28.820;2022-10-03T13:55:30;4.17;;;1.37;;
42066;SDS011;27734;47.028;28.820;2022-10-03T13:58:14;2.70;;;1.40;;
42066;SDS011;27734;47.028;28.820;2022-10-03T14:01:06;4.27;;;1.60;;
42066;SDS011;27734;47.028;28.820;2022-10-03T14:03:53;5.60;;;1.70;;
42066;SDS011;27734;47.028;28.820;2022-10-03T14:06:45;1.70;;;1.40;;
42066;SDS011;27734;47.028;28.820;2022-10-03T14:09:39;4.67;;;2.00;;
42066;SDS011;27734;47.028;28.820;2022-10-03T14:12:30;8.70;;;1.67;;
42066;SDS011;27734;47.028;28.820;2022-10-03T14:15:18;4.67;;;1.47;;
42066;SDS011;27734;47.028;28.820;2022-10-03T14:21:10;5.23;;;1.70;;
42066;SDS011;27734;47.028;28.820;2022-10-03T14:23:54;4.58;;;2.02;;
42066;SDS011;27734;47.028;28.820;2022-10-03T14:26:37;2.40;;;1.70;;
42066;SDS011;27734;47.028;28.820;2022-10-03T14:29:17;3.73;;;1.57;;
42066;SDS011;27734;47.028;28.820;2022-10-03T14:31:56;4.37;;;1.73;;
42066;SDS011;27734;47.028;28.820;2022-10-03T14:34:37;10.20;;;3.17;;
42066;SDS011;27734;47.028;28.820;2022-10-03T14:37:17;7.15;;;2.55;;
42066;SDS011;27734;47.028;28.820;2022-10-03T14:40:02;3.27;;;2.10;;
42066;SDS011;27734;47.028;28.820;2022-10-03T14:42:52;5.47;;;3.03;;
42066;SDS011;27734;47.028;28.820;2022-10-03T14:45:36;5.97;;;2.60;;
42066;SDS011;27734;47.028;28.820;2022-10-03T14:48:14;5.37;;;2.27;;
42066;SDS011;27734;47.028;28.820;2022-10-03T14:50:49;8.13;;;2.60;;
42066;SDS011;27734;47.028;28.820;2022-10-03T14:53:25;7.10;;;2.83;;
42066;SDS011;27734;47.028;28.820;2022-10-03T14:55:59;5.92;;;2.00;;
42066;SDS011;27734;47.028;28.820;2022-10-03T14:58:35;4.57;;;2.07;;
42066;SDS011;27734;47.028;28.820;2022-10-03T15:01:18;4.13;;;2.27;;
42066;SDS011;27734;47.028;28.820;2022-10-03T15:03:56;4.37;;;1.77;;
42066;SDS011;27734;47.028;28.820;2022-10-03T15:09:24;4.30;;;1.70;;
42066;SDS011;27734;47.028;28.820;2022-10-03T15:12:03;4.97;;;1.80;;
42066;SDS011;27734;47.028;28.820;2022-10-03T15:14:40;5.17;;;1.53;;
42066;SDS011;27734;47.028;28.820;2022-10-03T15:17:18;3.03;;;1.43;;
42066;SDS011;27734;47.028;28.820;2022-10-03T15:19:52;3.57;;;1.70;;
42066;SDS011;27734;47.028;28.820;2022-10-03T15:22:32;3.58;;;1.67;;
42066;SDS011;27734;47.028;28.820;2022-10-03T15:25:09;3.87;;;1.30;;
42066;SDS011;27734;47.028;28.820;2022-10-03T15:27:48;1.27;;;1.00;;
42066;SDS011;27734;47.028;28.820;2022-10-03T15:30:25;1.83;;;1.17;;
42066;SDS011;27734;47.028;28.820;2022-10-03T15:33:03;13.83;;;1.83;;
42066;SDS011;27734;47.028;28.820;2022-10-03T15:35:40;4.60;;;1.30;;
42066;SDS011;27734;47.028;28.820;2022-10-03T15:38:15;4.90;;;1.10;;
42066;SDS011;27734;47.028;28.820;2022-10-03T15:41:06;3.63;;;1.00;;
42066;SDS011;27734;47.028;28.820;2022-10-03T15:43:49;1.83;;;1.40;;
42066;SDS011;27734;47.028;28.820;2022-10-03T15:46:30;2.00;;;1.13;;
42066;SDS011;27734;47.028;28.820;2022-10-03T15:49:06;3.87;;;1.90;;
42066;SDS011;27734;47.028;28.820;2022-10-03T15:51:46;3.87;;;1.53;;
42066;SDS011;27734;47.028;28.820;2022-10-03T15:54:18;3.83;;;1.50;;
42066;SDS011;27734;47.028;28.820;2022-10-03T15:56:54;3.03;;;1.17;;
42066;SDS011;27734;47.028;28.820;2022-10-03T15:59:28;3.70;;;1.67;;
42066;SDS011;27734;47.028;28.820;2022-10-03T16:02:05;2.47;;;1.87;;
42066;SDS011;27734;47.028;28.820;2022-10-03T16:04:45;4.17;;;2.33;;
42066;SDS011;27734;47.028;28.820;2022-10-03T16:07:25;5.23;;;2.43;;
42066;SDS011;27734;47.028;28.820;2022-10-03T16:13:35;2.30;;;1.70;;
42066;SDS011;27734;47.028;28.820;2022-10-03T16:16:15;3.30;;;1.90;;
42066;SDS011;27734;47.028;28.820;2022-10-03T16:18:52;6.43;;;2.13;;
42066;SDS011;27734;47.028;28.820;2022-10-03T16:21:39;2.97;;;2.30;;
42066;SDS011;27734;47.028;28.820;2022-10-03T16:24:19;3.53;;;2.27;;
42066;SDS011;27734;47.028;28.820;2022-10-03T16:27:00;4.63;;;2.43;;
42066;SDS011;27734;47.028;28.820;2022-10-03T16:29:42;5.40;;;2.33;;
42066;SDS011;27734;47.028;28.820;2022-10-03T16:32:19;5.73;;;2.70;;
42066;SDS011;27734;47.028;28.820;2022-10-03T16:34:54;5.60;;;2.80;;
42066;SDS011;27734;47.028;28.820;2022-10-03T16:37:30;6.67;;;2.90;;
42066;SDS011;27734;47.028;28.820;2022-10-03T16:40:05;6.87;;;3.00;;
42066;SDS011;27734;47.028;28.820;2022-10-03T16:42:46;7.53;;;3.27;;
42066;SDS011;27734;47.028;28.820;2022-10-03T16:45:23;9.37;;;3.90;;
42066;SDS011;27734;47.028;28.820;2022-10-03T16:47:59;8.13;;;3.53;;
42066;SDS011;27734;47.028;28.820;2022-10-03T16:50:56;7.80;;;3.73;;
42066;SDS011;27734;47.028;28.820;2022-10-03T16:53:29;5.67;;;2.80;;
42066;SDS011;27734;47.028;28.820;2022-10-03T16:56:03;6.77;;;3.07;;
42066;SDS011;27734;47.028;28.820;2022-10-03T16:58:37;5.33;;;3.10;;
42066;SDS011;27734;47.028;28.820;2022-10-03T17:01:13;6.40;;;3.03;;
42066;SDS011;27734;47.028;28.820;2022-10-03T17:03:53;5.70;;;2.83;;
42066;SDS011;27734;47.028;28.820;2022-10-03T17:06:28;4.80;;;2.85;;
42066;SDS011;27734;47.028;28.820;2022-10-03T17:09:03;7.27;;;2.93;;
42066;SDS011;27734;47.028;28.820;2022-10-03T17:11:47;5.25;;;2.77;;
42066;SDS011;27734;47.028;28.820;2022-10-03T17:14:22;5.70;;;2.70;;
42066;SDS011;27734;47.028;28.820;2022-10-03T17:17:03;5.47;;;2.90;;
42066;SDS011;27734;47.028;28.820;2022-10-03T17:19:38;6.93;;;2.47;;
42066;SDS011;27734;47.028;28.820;2022-10-03T17:22:14;6.13;;;3.13;;
42066;SDS011;27734;47.028;28.820;2022-10-03T17:24:50;7.03;;;3.27;;
42066;SDS011;27734;47.028;28.820;2022-10-03T17:27:29;5.50;;;3.00;;
42066;SDS011;27734;47.028;28.820;2022-10-03T17:30:05;7.13;;;3.43;;
42066;SDS011;27734;47.028;28.820;2022-10-03T17:32:56;6.17;;;3.37;;
42066;SDS011;27734;47.028;28.820;2022-10-03T17:35:35;5.07;;;3.10;;
42066;SDS011;27734;47.028;28.820;2022-10-03T17:38:22;11.10;;;4.33;;
42066;SDS011;27734;47.028;28.820;2022-10-03T17:41:11;6.57;;;3.43;;
42066;SDS011;27734;47.028;28.820;2022-10-03T17:43:48;7.20;;;3.97;;
42066;SDS011;27734;47.028;28.820;2022-10-03T17:46:36;12.93;;;5.13;;
42066;SDS011;27734;47.028;28.820;2022-10-03T17:49:18;10.53;;;5.00;;
42066;SDS011;27734;47.028;28.820;2022-10-03T17:51:55;8.87;;;4.57;;
42066;SDS011;27734;47.028;28.820;2022-10-03T17:54:27;10.23;;;4.50;;
42066;SDS011;27734;47.028;28.820;2022-10-03T17:57:03;11.90;;;4.77;;
42066;SDS011;27734;47.028;28.820;2022-10-03T17:59:43;8.40;;;3.90;;
42066;SDS011;27734;47.028;28.820;2022-10-03T18:02:23;9.87;;;4.80;;
42066;SDS011;27734;47.028;28.820;2022-10-03T18:05:06;7.57;;;3.73;;
42066;SDS011;27734;47.028;28.820;2022-10-03T18:07:42;9.77;;;4.70;;
42066;SDS011;27734;47.028;28.820;2022-10-03T18:10:19;7.90;;;4.10;;
42066;SDS011;27734;47.028;28.820;2022-10-03T18:12:53;8.07;;;4.10;;
42066;SDS011;27734;47.028;28.820;2022-10-03T18:15:34;9.20;;;3.90;;
42066;SDS011;27734;47.028;28.820;2022-10-03T18:21:41;5.20;;;3.10;;
42066;SDS011;27734;47.028;28.820;2022-10-03T18:24:29;5.90;;;3.10;;
42066;SDS011;27734;47.028;28.820;2022-10-03T18:27:15;7.50;;;3.03;;
42066;SDS011;27734;47.028;28.820;2022-10-03T18:30:20;9.53;;;4.27;;
42066;SDS011;27734;47.028;28.820;2022-10-03T18:32:59;9.10;;;4.43;;
42066;SDS011;27734;47.028;28.820;2022-10-03T18:35:34;8.03;;;3.50;;
42066;SDS011;27734;47.028;28.820;2022-10-03T18:40:44;6.07;;;3.20;;
42066;SDS011;27734;47.028;28.820;2022-10-03T18:43:25;5.47;;;3.10;;
42066;SDS011;27734;47.028;28.820;2022-10-03T18:46:01;7.33;;;2.80;;
42066;SDS011;27734;47.028;28.820;2022-10-03T18:48:52;5.30;;;2.80;;
42066;SDS011;27734;47.028;28.820;2022-10-03T18:51:30;8.77;;;3.10;;
42066;SDS011;27734;47.028;28.820;2022-10-03T18:54:12;4.60;;;2.60;;
42066;SDS011;27734;47.028;28.820;2022-10-03T18:57:04;5.37;;;2.77;;
42066;SDS011;27734;47.028;28.820;2022-10-03T18:59:43;7.50;;;3.47;;
42066;SDS011;27734;47.028;28.820;2022-10-03T19:02:22;8.43;;;3.27;;
42066;SDS011;27734;47.028;28.820;2022-10-03T19:05:01;6.33;;;2.90;;
42066;SDS011;27734;47.028;28.820;2022-10-03T19:07:45;7.27;;;3.10;;
42066;SDS011;27734;47.028;28.820;2022-10-03T19:10:25;5.87;;;2.80;;
42066;SDS011;27734;47.028;28.820;2022-10-03T19:13:05;7.03;;;3.00;;
42066;SDS011;27734;47.028;28.820;2022-10-03T19:15:51;6.12;;;3.00;;
42066;SDS011;27734;47.028;28.820;2022-10-03T19:18:49;5.70;;;3.07;;
42066;SDS011;27734;47.028;28.820;2022-10-03T19:24:03;5.37;;;3.00;;
42066;SDS011;27734;47.028;28.820;2022-10-03T19:26:43;9.23;;;3.90;;
42066;SDS011;27734;47.028;28.820;2022-10-03T19:29:19;8.57;;;3.83;;
42066;SDS011;27734;47.028;28.820;2022-10-03T19:31:57;9.60;;;4.50;;
42066;SDS011;27734;47.028;28.820;2022-10-03T19:34:34;15.03;;;6.37;;
42066;SDS011;27734;47.028;28.820;2022-10-03T19:37:09;20.95;;;9.05;;
42066;SDS011;27734;47.028;28.820;2022-10-03T19:39:44;20.23;;;8.53;;
42066;SDS011;27734;47.028;28.820;2022-10-03T19:42:20;20.87;;;9.57;;
42066;SDS011;27734;47.028;28.820;2022-10-03T19:44:58;17.47;;;7.97;;
42066;SDS011;27734;47.028;28.820;2022-10-03T19:47:31;19.53;;;8.07;;
42066;SDS011;27734;47.028;28.820;2022-10-03T19:50:08;13.00;;;5.80;;
42066;SDS011;27734;47.028;28.820;2022-10-03T19:52:45;14.20;;;6.33;;
42066;SDS011;27734;47.028;28.820;2022-10-03T19:55:18;12.50;;;5.27;;
42066;SDS011;27734;47.028;28.820;2022-10-03T19:57:52;12.43;;;4.50;;
42066;SDS011;27734;47.028;28.820;2022-10-03T20:00:28;9.33;;;4.20;;
42066;SDS011;27734;47.028;28.820;2022-10-03T20:03:05;7.90;;;3.80;;
42066;SDS011;27734;47.028;28.820;2022-10-03T20:05:44;7.83;;;3.93;;
42066;SDS011;27734;47.028;28.820;2022-10-03T20:08:21;8.17;;;3.57;;
42066;SDS011;27734;47.028;28.820;2022-10-03T20:13:59;6.40;;;2.53;;
42066;SDS011;27734;47.028;28.820;2022-10-03T20:16:31;6.60;;;2.50;;
42066;SDS011;27734;47.028;28.820;2022-10-03T20:19:11;4.27;;;2.53;;
42066;SDS011;27734;47.028;28.820;2022-10-03T20:21:45;4.00;;;2.30;;
42066;SDS011;27734;47.028;28.820;2022-10-03T20:24:25;4.10;;;2.60;;
42066;SDS011;27734;47.028;28.820;2022-10-03T20:27:04;4.70;;;2.30;;
42066;SDS011;27734;47.028;28.820;2022-10-03T20:29:44;3.33;;;2.10;;
42066;SDS011;27734;47.028;28.820;2022-10-03T20:32:20;2.23;;;1.90;;
42066;SDS011;27734;47.028;28.820;2022-10-03T20:34:54;4.45;;;2.35;;
42066;SDS011;27734;47.028;28.820;2022-10-03T20:37:31;4.00;;;2.00;;
42066;SDS011;27734;47.028;28.820;2022-10-03T20:40:17;2.77;;;1.90;;
42066;SDS011;27734;47.028;28.820;2022-10-03T20:43:02;2.67;;;1.90;;